Time;durP1;ratioP1;P1;durP2;ratioP2;P2;SDS_P1;SDS_P2;PMS_P1;PMS_P2;Temp;Humidity;BMP_temperature;BMP_pressure;BME280_temperature;BME280_humidity;BME280_pressure;Samples;Min_cycle;Max_cycle;Signal;HPM_P1;HPM_P2
2022/12/22 03:27:35;;;;;;;6.97;5.30;;;10.80;99.90;;;;;;5056109;28;20188;-87
2022/12/22 03:36:45;;;;;;;5.70;4.50;;;10.60;95.70;;;;;;5055293;28;20437;-87
2022/12/22 03:49:21;;;;;;;109.83;53.90;;;10.50;99.90;;;;;;5056055;28;20389;-87
2022/12/22 03:58:30;;;;;;;7.67;5.17;;;10.50;99.90;;;;;;5051259;28;20426;-87
2022/12/22 04:04:19;;;;;;;7.70;4.87;;;10.50;99.90;;;;;;5055143;28;20218;-87
2022/12/22 04:13:01;;;;;;;41.83;18.07;;;10.70;99.90;;;;;;5065065;28;20422;-86
2022/12/22 04:19:07;;;;;;;5.30;3.93;;;10.70;99.90;;;;;;5048428;28;20408;-87
2022/12/22 04:21:33;;;;;;;9.00;3.77;;;10.70;99.90;;;;;;5053358;28;20439;-81
2022/12/22 04:24:07;;;;;;;126.97;44.57;;;10.70;99.90;;;;;;5067581;28;20409;-80
2022/12/22 04:27:12;;;;;;;6.33;3.90;;;10.60;99.90;;;;;;5038937;28;20434;-79
2022/12/22 04:29:54;;;;;;;7.90;3.43;;;10.60;99.90;;;;;;5040230;28;20406;-79
2022/12/22 04:32:24;;;;;;;4.70;3.60;;;10.60;99.90;;;;;;5054854;28;20951;-79
2022/12/22 04:35:12;;;;;;;18.40;3.77;;;10.70;99.90;;;;;;5070482;28;20425;-79
2022/12/22 04:37:54;;;;;;;6.70;3.93;;;10.60;99.90;;;;;;5048455;28;20433;-79
2022/12/22 04:40:42;;;;;;;178.33;74.07;;;10.60;99.90;;;;;;5063657;28;20403;-79
2022/12/22 04:43:08;;;;;;;195.40;77.13;;;10.60;99.90;;;;;;5047886;28;20424;-80
2022/12/22 04:45:54;;;;;;;13.80;6.23;;;10.70;99.90;;;;;;5066108;28;20462;-79
2022/12/22 04:48:36;;;;;;;235.10;87.60;;;10.60;99.90;;;;;;5061492;28;20538;-80
2022/12/22 04:51:54;;;;;;;58.23;21.70;;;10.70;99.20;;;;;;5060002;28;20987;-85
2022/12/22 04:54:36;;;;;;;518.50;141.07;;;10.60;99.30;;;;;;5059814;28;20425;-86
2022/12/22 04:57:06;;;;;;;745.83;225.32;;;10.60;99.90;;;;;;5055473;28;20190;-86
2022/12/22 05:02:54;;;;;;;228.97;93.13;;;10.60;99.90;;;;;;5062297;28;20487;-84
2022/12/22 05:08:41;;;;;;;540.30;159.43;;;10.70;98.10;;;;;;5041238;28;20180;-80
2022/12/22 05:11:12;;;;;;;89.03;48.97;;;10.70;97.40;;;;;;5047446;28;20414;-79
2022/12/22 05:13:38;;;;;;;9.40;3.13;;;10.60;97.90;;;;;;5060771;28;20536;-79
2022/12/22 05:16:31;;;;;;;10.47;3.40;;;10.60;97.90;;;;;;5051563;28;20426;-79
2022/12/22 05:18:57;;;;;;;5.97;4.83;;;10.70;99.70;;;;;;5050913;28;20191;-79
2022/12/22 05:24:44;;;;;;;10.73;3.80;;;10.50;99.90;;;;;;5061078;28;20686;-85
2022/12/22 05:27:48;;;;;;;648.37;175.20;;;10.60;99.90;;;;;;5054289;28;20403;-86
2022/12/22 05:30:19;;;;;;;1042.73;390.67;;;10.70;99.90;;;;;;5067826;28;20140;-86
2022/12/22 05:35:54;;;;;;;;;;;10.60;99.90;;;;;;5048941;28;20794;-86
2022/12/22 05:38:30;;;;;;;;;;;10.70;99.90;;;;;;5063866;28;19909;-80
2022/12/22 05:41:18;;;;;;;;;;;10.70;99.10;;;;;;5053720;28;20360;-81
2022/12/22 05:44:06;;;;;;;;;;;10.80;96.70;;;;;;5051787;28;20005;-79
2022/12/22 05:46:54;;;;;;;;;;;10.70;96.60;;;;;;5056585;28;19920;-80
2022/12/22 05:49:48;;;;;;;;;;;10.60;96.80;;;;;;5048669;28;20371;-80
2022/12/22 05:52:36;;;;;;;;;;;10.60;99.50;;;;;;5054640;28;20203;-86
2022/12/22 05:58:24;;;;;;;;;;;10.70;98.50;;;;;;5033999;28;20192;-91
2022/12/22 06:01:06;;;;;;;;;;;10.70;97.50;;;;;;5048396;28;19909;-85
2022/12/22 06:03:42;;;;;;;;;;;10.80;98.20;;;;;;5050590;28;20164;-85
2022/12/22 06:06:19;;;;;;;;;;;10.80;98.20;;;;;;5068419;28;20266;-84
2022/12/22 06:08:45;;;;;;;;;;;10.90;97.90;;;;;;5067567;28;20601;-82
2022/12/22 06:11:30;;;;;;;;;;;10.90;95.00;;;;;;5041104;28;19905;-82
2022/12/22 06:14:24;;;;;;;;;;;10.90;97.20;;;;;;5062040;28;20284;-82
2022/12/22 06:16:50;;;;;;;;;;;10.90;96.20;;;;;;5058532;28;19909;-81
2022/12/22 06:19:25;;;;;;;;;;;10.90;95.80;;;;;;5052682;28;19962;-81
2022/12/22 06:27:56;;;;;;;;;;;11.00;93.80;;;;;;5073411;28;20318;-84
2022/12/22 06:30:24;;;;;;;;;;;11.10;92.10;;;;;;5057028;28;19908;-84
2022/12/22 06:35:53;;;;;;;;;;;11.10;90.90;;;;;;5069142;28;20375;-84
2022/12/22 06:38:25;;;;;;;;;;;11.10;90.30;;;;;;5069060;28;19905;-81
2022/12/22 06:41:00;;;;;;;;;;;11.10;91.00;;;;;;5052074;28;19905;-81
2022/12/22 06:43:26;;;;;;;;;;;11.10;90.60;;;;;;5061186;28;19908;-81
2022/12/22 06:45:54;;;;;;;;;;;11.10;87.50;;;;;;5050983;28;19912;-81
2022/12/22 06:51:23;;;;;;;;;;;11.20;90.10;;;;;;5056383;28;19911;-82
2022/12/22 06:54:12;;;;;;;;;;;11.20;81.60;;;;;;5075504;28;19909;-85
2022/12/22 07:00:00;;;;;;;;;;;11.20;83.90;;;;;;5065350;28;19912;-86
2022/12/22 07:02:28;;;;;;;;;;;11.20;85.50;;;;;;5055517;28;20257;-86
2022/12/22 07:07:56;;;;;;;;;;;11.20;82.00;;;;;;5059598;28;19959;-83
2022/12/22 07:10:56;;;;;;;;;;;11.20;79.20;;;;;;5059390;28;20412;-82
2022/12/22 07:13:26;;;;;;;;;;;11.20;77.20;;;;;;5056342;28;19913;-81
2022/12/22 07:18:55;;;;;;;;;;;11.30;71.40;;;;;;5053751;28;19999;-82
2022/12/22 07:24:25;;;;;;;;;;;11.30;72.20;;;;;;5055789;28;19958;-85
2022/12/22 07:29:53;;;;;;;;;;;11.20;79.40;;;;;;5056457;28;19951;-84
2022/12/22 07:35:22;;;;;;;;;;;11.30;83.80;;;;;;5055640;28;19976;-84
2022/12/22 07:40:58;;;;;;;;;;;11.30;81.80;;;;;;5063842;28;19915;-77
2022/12/22 07:43:23;;;;;;;;;;;11.20;82.40;;;;;;5069210;28;19911;-76
2022/12/22 07:46:00;;;;;;;;;;;11.30;84.70;;;;;;5068197;28;19908;-76
2022/12/22 07:51:43;;;;;;;;;;;11.20;90.90;;;;;;5013704;28;24071;-75
2022/12/22 07:54:09;;;;;;;;;;;11.30;91.10;;;;;;5004550;28;19972;-76
2022/12/22 07:56:43;;;;;;;;;;;11.30;90.30;;;;;;5026556;28;19905;-75
2022/12/22 07:59:19;;;;;;;;;;;11.30;90.10;;;;;;5013711;28;19905;-75
2022/12/22 08:01:48;;;;;;;;;;;11.40;84.50;;;;;;5026226;28;20041;-82
2022/12/22 08:07:17;;;;;;;;;;;11.50;76.20;;;;;;5000793;28;20320;-83
2022/12/22 08:09:48;;;;;;;;;;;11.40;79.50;;;;;;5003043;28;19905;-83
2022/12/22 08:15:24;;;;;;;;;;;11.50;71.80;;;;;;5015750;28;19913;-83
2022/12/22 08:17:50;;;;;;;;;;;11.40;76.60;;;;;;5019209;28;19913;-78
2022/12/22 08:20:16;;;;;;;;;;;11.30;76.60;;;;;;5013531;28;19909;-75
2022/12/22 08:22:41;;;;;;;;;;;11.30;79.60;;;;;;5014605;28;19909;-76
2022/12/22 08:25:12;;;;;;;;;;;11.30;79.70;;;;;;5044262;28;19908;-79
2022/12/22 08:28:00;;;;;;;;;;;11.30;79.30;;;;;;5067498;28;19908;-79
2022/12/22 08:30:36;;;;;;;;;;;11.30;86.00;;;;;;5057350;28;19908;-80
2022/12/22 08:33:13;;;;;;;;;;;11.30;83.30;;;;;;5051456;28;19909;-80
2022/12/22 08:35:48;;;;;;;;;;;11.40;80.80;;;;;;5061249;28;19948;-79
2022/12/22 08:38:36;;;;;;;;;;;11.50;74.00;;;;;;5057773;28;19908;-77
2022/12/22 08:41:02;;;;;;;;;;;11.50;68.60;;;;;;5047267;28;20376;-79
2022/12/22 08:43:31;;;;;;;;;;;11.50;58.60;;;;;;5059057;28;19905;-79
2022/12/22 08:46:01;;;;;;;;;;;11.50;58.80;;;;;;5058591;28;19967;-80
2022/12/22 08:48:42;;;;;;;;;;;11.60;55.70;;;;;;5063454;28;20000;-79
2022/12/22 08:51:08;;;;;;;;;;;11.60;54.70;;;;;;5060210;28;19908;-79
2022/12/22 08:53:33;;;;;;;;;;;11.60;50.10;;;;;;5060913;28;19969;-77
2022/12/22 08:56:24;;;;;;;;;;;11.70;52.10;;;;;;5058683;28;20253;-77
2022/12/22 08:59:06;;;;;;;;;;;11.70;43.40;;;;;;5061182;28;19904;-76
2022/12/22 09:01:49;;;;;;;;;;;11.70;43.40;;;;;;5056811;28;19938;-76
2022/12/22 09:04:32;;;;;;;;;;;11.70;43.60;;;;;;5034842;28;19912;-77
2022/12/22 09:07:03;;;;;;;;;;;11.60;43.50;;;;;;5053157;28;19905;-77
2022/12/22 09:09:31;;;;;;;;;;;11.50;49.00;;;;;;5058576;28;20011;-80
2022/12/22 09:12:12;;;;;;;;;;;11.50;49.20;;;;;;5060883;28;19957;-80
2022/12/22 09:14:38;;;;;;;;;;;11.60;46.70;;;;;;5057306;28;19904;-80
2022/12/22 09:17:04;;;;;;;;;;;11.60;43.40;;;;;;5053363;28;19924;-80
2022/12/22 09:19:29;;;;;;;;;;;11.60;43.30;;;;;;5068228;28;19913;-80
2022/12/22 09:22:13;;;;;;;;;;;11.60;43.30;;;;;;5054156;28;19912;-80
2022/12/22 09:24:49;;;;;;;;;;;11.70;43.40;;;;;;5067765;28;19995;-80
2022/12/22 09:27:49;;;;;;;;;;;11.70;43.60;;;;;;5062339;28;19909;-80
2022/12/22 09:30:19;;;;;;;;;;;11.60;43.50;;;;;;5066741;28;19913;-80
2022/12/22 09:33:19;;;;;;;;;;;11.60;43.30;;;;;;5053490;28;19919;-80
2022/12/22 09:35:49;;;;;;;;;;;11.50;43.20;;;;;;5065819;28;19908;-80
2022/12/22 09:38:26;;;;;;;;;;;11.60;50.60;;;;;;5054464;28;19913;-80
2022/12/22 09:41:13;;;;;;;;;;;11.60;44.80;;;;;;5066930;28;20318;-80
2022/12/22 09:43:55;;;;;;;;;;;11.50;46.20;;;;;;5055032;28;20253;-80
2022/12/22 09:46:25;;;;;;;;;;;11.60;46.90;;;;;;5057564;28;19908;-80
2022/12/22 09:48:51;;;;;;;;;;;11.40;53.00;;;;;;5053993;28;20275;-80
2022/12/22 09:54:20;;;;;;;;;;;11.50;55.60;;;;;;5073591;28;19915;-80
2022/12/22 09:57:01;;;;;;;;;;;11.60;52.50;;;;;;5060756;28;20051;-80
2022/12/22 09:59:37;;;;;;;;;;;11.50;50.50;;;;;;5046536;28;20834;-81
2022/12/22 10:02:13;;;;;;;;;;;11.40;63.20;;;;;;5049344;28;19964;-80
2022/12/22 10:04:53;;;;;;;;;;;11.50;60.50;;;;;;5077030;28;20006;-80
2022/12/22 10:07:19;;;;;;;;;;;11.50;62.10;;;;;;5059456;28;19920;-80
2022/12/22 10:09:55;;;;;;;;;;;11.50;70.70;;;;;;5057763;28;20406;-80
2022/12/22 10:12:31;;;;;;;;;;;11.60;67.40;;;;;;5057630;28;19908;-80
2022/12/22 10:15:02;;;;;;;;;;;11.60;62.20;;;;;;5070690;28;20360;-80
2022/12/22 10:17:30;;;;;;;;;;;11.60;63.00;;;;;;5059440;28;19916;-80
2022/12/22 10:23:17;;;;;;;;;;;11.80;57.70;;;;;;5037416;28;19968;-80
2022/12/22 10:25:58;;;;;;;;;;;11.90;43.50;;;;;;5047953;28;20376;-76
2022/12/22 10:31:28;;;;;;;;;;;11.90;43.80;;;;;;5048826;28;19921;-80
2022/12/22 10:34:25;;;;;;;;;;;11.90;43.70;;;;;;5069029;28;20285;-85
2022/12/22 10:39:54;;;;;;;;;;;12.00;44.00;;;;;;5060571;28;19920;-83
2022/12/22 10:42:25;;;;;;;;;;;12.00;43.90;;;;;;5063888;28;19916;-83
2022/12/22 10:45:01;;;;;;;;;;;12.00;43.70;;;;;;5051897;28;19916;-83
2022/12/22 10:50:30;;;;;;;;;;;12.00;56.10;;;;;;5045864;28;20466;-83
2022/12/22 10:52:56;;;;;;;;;;;12.00;49.40;;;;;;5042772;28;19959;-83
2022/12/22 10:55:38;;;;;;;;;;;12.00;43.70;;;;;;5056746;28;19920;-84
2022/12/22 10:58:14;;;;;;;;;;;12.00;43.70;;;;;;5066199;28;19940;-84
2022/12/22 11:01:14;;;;;;;;;;;12.10;44.00;;;;;;5077217;28;19966;-84
2022/12/22 11:03:43;;;;;;;;;;;12.10;43.80;;;;;;5056756;28;19920;-84
2022/12/22 11:06:14;;;;;;;;;;;12.10;44.00;;;;;;5056817;28;19913;-84
2022/12/22 11:08:44;;;;;;;;;;;12.10;44.00;;;;;;5055309;28;19920;-82
2022/12/22 11:11:17;;;;;;;;;;;12.20;43.90;;;;;;5055353;28;19970;-82
2022/12/22 11:14:02;;;;;;;;;;;12.20;43.90;;;;;;5069930;28;19909;-82
2022/12/22 11:16:39;;;;;;;;;;;12.20;44.00;;;;;;5057295;28;19909;-82
2022/12/22 11:19:22;;;;;;;;;;;12.20;43.90;;;;;;5066613;28;19925;-82
2022/12/22 11:22:01;;;;;;;;;;;12.20;43.90;;;;;;5055664;28;19960;-82
2022/12/22 11:24:45;;;;;;;;;;;12.10;44.00;;;;;;5055925;28;19979;-82
2022/12/22 11:27:11;;;;;;;;;;;12.20;43.90;;;;;;5055912;28;19912;-82
2022/12/22 11:29:52;;;;;;;;;;;12.30;44.00;;;;;;5064618;28;20356;-82
2022/12/22 11:32:36;;;;;;;;;;;12.50;44.10;;;;;;5069422;28;19912;-82
2022/12/22 11:35:13;;;;;;;;;;;12.50;44.30;;;;;;5069779;28;19958;-82
2022/12/22 11:37:48;;;;;;;;;;;12.70;44.30;;;;;;5071084;28;19916;-79
2022/12/22 11:40:47;;;;;;;;;;;12.80;44.60;;;;;;5063161;28;19913;-84
2022/12/22 11:43:22;;;;;;;;;;;12.70;36.30;;;;;;5051940;28;19952;-83
2022/12/22 11:46:07;;;;;;;;;;;12.70;38.80;;;;;;5047291;28;20390;-83
2022/12/22 11:48:37;;;;;;;;;;;12.70;44.30;;;;;;5067888;28;19910;-83
2022/12/22 11:51:23;;;;;;;;;;;12.60;36.80;;;;;;5083425;28;19908;-83
2022/12/22 11:54:01;;;;;;;;;;;12.70;44.40;;;;;;5063178;28;19909;-82
2022/12/22 12:02:44;;;;;;;;;;;12.40;43.80;;;;;;5051377;28;19916;-88
2022/12/22 12:05:31;;;;;;;;;;;12.50;44.00;;;;;;5060294;28;19920;-88
2022/12/22 12:08:34;;;;;;;;;;;12.50;44.10;;;;;;5064906;28;19909;-87
2022/12/22 12:11:16;;;;;;;;;;;12.40;43.30;;;;;;5023763;28;20518;-82
2022/12/22 12:14:14;;;;;;;;;;;12.20;43.90;;;;;;5062225;28;19909;-83
2022/12/22 12:16:45;;;;;;;;;;;12.10;43.80;;;;;;5057728;28;19909;-83
2022/12/22 12:19:44;;;;;;;;;;;12.10;43.80;;;;;;5034906;28;19925;-83
2022/12/22 12:22:34;;;;;;;;;;;12.20;44.00;;;;;;5049971;28;19913;-83
2022/12/22 12:28:14;;;;;;;;;;;12.20;43.90;;;;;;5012185;28;20008;-83
2022/12/22 12:31:13;;;;;;;;;;;12.20;43.80;;;;;;5013282;28;19909;-84
2022/12/22 12:33:46;;;;;;;;;;;12.20;43.80;;;;;;5038974;28;19913;-82
2022/12/22 12:36:14;;;;;;;;;;;12.20;43.90;;;;;;5020214;28;20368;-82
2022/12/22 12:38:44;;;;;;;;;;;12.30;44.00;;;;;;5045932;28;20317;-82
2022/12/22 12:41:34;;;;;;;;;;;12.20;43.90;;;;;;5040968;28;20003;-86
2022/12/22 12:44:00;;;;;;;;;;;12.20;43.90;;;;;;4956887;28;19915;-87
2022/12/22 12:46:52;;;;;;;;;;;12.10;45.00;;;;;;4977184;28;19914;-88
2022/12/22 12:49:32;;;;;;;;;;;12.20;43.90;;;;;;4975053;28;19932;-86
2022/12/22 12:52:14;;;;;;;;;;;12.10;47.90;;;;;;4986831;28;19914;-84
2022/12/22 12:54:45;;;;;;;;;;;12.20;43.90;;;;;;4969243;28;19921;-84
2022/12/22 12:57:13;;;;;;;;;;;12.20;44.00;;;;;;4971583;28;20390;-85
2022/12/22 12:59:44;;;;;;;;;;;12.20;43.90;;;;;;4957337;28;19914;-83
2022/12/22 13:02:44;;;;;;;;;;;12.30;44.00;;;;;;4961000;28;19913;-83
2022/12/22 13:05:31;;;;;;;;;;;12.30;44.00;;;;;;4992164;28;19948;-84
2022/12/22 13:08:14;;;;;;;;;;;12.30;48.00;;;;;;4972262;28;20329;-94
2022/12/22 13:10:56;;;;;;;;;;;12.20;43.90;;;;;;5013588;28;19936;-95
2022/12/22 13:16:26;;;;;;;;;;;11.90;43.60;;;;;;4996868;28;20651;-85
2022/12/22 13:19:14;;;;;;;;;;;12.00;43.60;;;;;;4976753;28;19918;-86
2022/12/22 13:22:14;;;;;;;;;;;12.00;43.70;;;;;;5031738;28;19921;-87
2022/12/22 13:24:44;;;;;;;;;;;11.90;43.60;;;;;;5055359;28;19981;-85
2022/12/22 13:27:14;;;;;;;;;;;11.90;43.80;;;;;;5066613;28;19916;-94
2022/12/22 13:30:08;;;;;;;;;;;11.90;43.60;;;;;;5072555;28;20462;-87
2022/12/22 13:32:46;;;;;;;;;;;11.80;43.50;;;;;;5055523;28;19996;-85
2022/12/22 13:38:44;;;;;;;;;;;11.70;43.60;;;;;;5053072;28;20330;-85
2022/12/22 13:41:15;;;;;;;;;;;11.60;43.30;;;;;;5051459;28;19912;-83
2022/12/22 13:44:08;;;;;;;;;;;11.70;43.40;;;;;;5055885;28;20042;-81
2022/12/22 13:46:56;;;;;;;;;;;11.70;43.40;;;;;;5057354;28;20004;-85
2022/12/22 13:49:27;;;;;;;;;;;11.70;43.40;;;;;;5063169;28;19913;-83
2022/12/22 13:51:56;;;;;;;;;;;11.80;43.50;;;;;;5084677;28;20452;-82
2022/12/22 13:54:44;;;;;;;;;;;11.70;43.40;;;;;;5062442;28;20364;-87
2022/12/22 13:57:21;;;;;;;;;;;11.70;43.40;;;;;;5076626;28;19908;-88
2022/12/22 14:02:51;;;;;;;;;;;11.70;48.80;;;;;;5046960;28;19924;-85
2022/12/22 14:05:31;;;;;;;;;;;11.70;45.60;;;;;;5057221;28;19918;-86
2022/12/22 14:08:21;;;;;;;;;;;11.50;44.80;;;;;;5051801;28;19909;-87
2022/12/22 14:10:56;;;;;;;;;;;11.50;57.50;;;;;;5069516;28;20003;-82
2022/12/22 14:13:29;;;;;;;;;;;11.60;53.50;;;;;;5060646;28;20000;-78
2022/12/22 14:16:04;;;;;;;;;;;11.50;45.90;;;;;;5060927;28;19912;-78
2022/12/22 14:18:32;;;;;;;;;;;11.50;51.30;;;;;;5047630;28;19916;-78
2022/12/22 14:21:02;;;;;;;;;;;11.50;55.90;;;;;;5051930;28;19917;-77
2022/12/22 14:23:45;;;;;;;;;;;11.60;57.60;;;;;;5050024;28;19963;-81
2022/12/22 14:26:17;;;;;;;;;;;11.60;63.20;;;;;;5062899;28;20004;-79
2022/12/22 14:28:49;;;;;;;;;;;11.50;66.20;;;;;;5037252;28;19913;-84
2022/12/22 14:31:44;;;;;;;;;;;11.30;68.80;;;;;;5049186;28;20258;-83
2022/12/22 14:34:38;;;;;;;;;;;11.30;70.20;;;;;;5049326;28;19951;-81
2022/12/22 14:37:04;;;;;;;;;;;11.20;72.80;;;;;;5061761;28;19913;-83
2022/12/22 14:39:38;;;;;;;;;;;11.20;66.90;;;;;;5054471;28;20031;-83
2022/12/22 14:42:10;;;;;;;;;;;11.10;59.70;;;;;;5045446;28;19913;-77
2022/12/22 14:44:57;;;;;;;;;;;11.10;57.00;;;;;;5053157;28;19917;-79
2022/12/22 14:47:25;;;;;;;;;;;11.10;58.50;;;;;;5058126;28;19937;-79
2022/12/22 14:50:00;;;;;;;;;;;11.10;55.20;;;;;;5070624;28;19916;-79
2022/12/22 14:52:34;;;;;;;;;;;11.10;49.70;;;;;;5065206;28;20455;-80
2022/12/22 14:55:04;;;;;;;;;;;11.10;42.90;;;;;;5057890;28;19909;-80
2022/12/22 14:57:41;;;;;;;;;;;11.10;43.00;;;;;;5073932;28;19908;-79
2022/12/22 15:00:28;;;;;;;;;;;11.00;43.00;;;;;;5055238;28;19909;-79
2022/12/22 15:02:56;;;;;;;;;;;10.90;42.70;;;;;;5054591;28;20276;-80
2022/12/22 15:05:37;;;;;;;;;;;10.90;42.70;;;;;;5069408;28;19924;-78
2022/12/22 15:08:03;;;;;;;;;;;10.80;42.60;;;;;;5041646;28;20003;-80
2022/12/22 15:10:35;;;;;;;;;;;10.70;42.50;;;;;;5064924;28;19909;-80
2022/12/22 15:16:03;;;;;;;;;;;10.70;42.50;;;;;;5056053;28;20322;-74
2022/12/22 15:18:29;;;;;;;;;;;10.70;42.50;;;;;;5055885;28;20008;-75
2022/12/22 15:20:55;;;;;;;;;;;10.70;42.50;;;;;;5056858;28;20399;-76
2022/12/22 15:23:26;;;;;;;;;;;10.60;42.40;;;;;;5056182;28;20352;-77
2022/12/22 15:25:52;;;;;;;;;;;10.70;42.50;;;;;;5058533;28;19920;-74
2022/12/22 15:28:18;;;;;;;;;;;10.60;42.40;;;;;;5076103;28;19915;-74
2022/12/22 15:31:08;;;;;;;;;;;10.60;42.40;;;;;;5057403;28;19954;-76
2022/12/22 15:33:50;;;;;;;;;;;10.60;42.60;;;;;;5069409;28;19913;-76
2022/12/22 15:36:16;;;;;;;;;;;10.60;42.40;;;;;;5056506;28;19959;-75
2022/12/22 15:39:02;;;;;;;;;;;10.60;42.40;;;;;;5070211;28;19908;-75
2022/12/22 15:41:45;;;;;;;;;;;10.50;42.30;;;;;;5062796;28;19936;-74
2022/12/22 15:44:11;;;;;;;;;;;10.50;42.30;;;;;;5056892;28;19992;-74
2022/12/22 15:46:39;;;;;;;;;;;10.60;42.40;;;;;;5053004;28;19917;-74
2022/12/22 15:49:24;;;;;;;;;;;10.50;42.30;;;;;;5055913;28;19955;-73
2022/12/22 15:51:52;;;;;;;;;;;10.60;42.40;;;;;;5054560;28;21595;-74
2022/12/22 15:54:21;;;;;;;;;;;10.50;42.30;;;;;;5056847;28;20406;-74
2022/12/22 15:56:50;;;;;;;;;;;10.50;42.30;;;;;;5037008;28;20327;-74
2022/12/22 15:59:17;;;;;;;;;;;10.60;42.40;;;;;;5056077;28;20076;-74
2022/12/22 16:01:50;;;;;;;;;;;10.60;42.40;;;;;;5055081;28;19912;-74
2022/12/22 16:04:21;;;;;;;;;;;10.60;42.60;;;;;;5042093;28;19909;-74
2022/12/22 16:06:47;;;;;;;;;;;10.60;42.60;;;;;;5072609;28;20252;-74
2022/12/22 16:09:22;;;;;;;;;;;10.50;42.30;;;;;;5058568;28;19913;-77
2022/12/22 16:12:20;;;;;;;;;;;10.50;42.30;;;;;;5053656;28;19913;-77
2022/12/22 16:14:48;;;;;;;;;;;10.50;42.30;;;;;;5071654;28;19920;-75
2022/12/22 16:17:16;;;;;;;;;;;10.50;42.30;;;;;;5050523;28;20518;-74
2022/12/22 16:19:45;;;;;;;;;;;10.60;42.40;;;;;;5056325;28;19960;-73
2022/12/22 16:22:14;;;;;;;;;;;10.70;42.70;;;;;;5039348;28;19913;-74
2022/12/22 16:24:46;;;;;;;;;;;10.70;32.90;;;;;;5048646;28;19917;-74
2022/12/22 16:27:21;;;;;;;;;;;10.70;30.90;;;;;;5044920;28;19913;-74
2022/12/22 16:29:51;;;;;;;;;;;10.80;29.80;;;;;;5055163;28;19908;-74
2022/12/22 16:32:25;;;;;;;;;;;10.80;27.60;;;;;;5046310;28;19967;-74
2022/12/22 16:34:51;;;;;;;;;;;10.90;25.70;;;;;;5054491;28;20003;-74
2022/12/22 16:37:20;;;;;;;;;;;10.90;24.30;;;;;;5053003;28;19962;-74
2022/12/22 16:39:46;;;;;;;;;;;10.80;23.80;;;;;;5054600;28;19944;-73
2022/12/22 16:42:16;;;;;;;;;;;10.70;25.10;;;;;;5055066;28;19955;-74
2022/12/22 16:44:46;;;;;;;;;;;10.70;26.00;;;;;;5054785;28;20345;-76
2022/12/22 16:47:23;;;;;;;;;;;10.60;25.00;;;;;;5060347;28;19909;-75
2022/12/22 16:49:49;;;;;;;;;;;10.60;23.90;;;;;;5063001;28;20000;-75
2022/12/22 16:52:16;;;;;;;;;;;10.70;22.40;;;;;;5055294;28;19996;-75
2022/12/22 16:54:50;;;;;;;;;;;10.60;21.70;;;;;;5054556;28;19916;-75
2022/12/22 16:57:16;;;;;;;;;;;10.50;23.30;;;;;;5049686;28;19913;-75
2022/12/22 16:59:50;;;;;;;;;;;10.50;23.90;;;;;;5054215;28;20004;-75
2022/12/22 17:02:19;;;;;;;;;;;10.60;24.00;;;;;;5067811;28;19915;-75
2022/12/22 17:04:44;;;;;;;;;;;10.60;22.90;;;;;;5049211;28;19921;-75
2022/12/22 17:07:21;;;;;;;;;;;10.70;22.00;;;;;;5065398;28;19958;-75
2022/12/22 17:09:58;;;;;;;;;;;10.70;20.70;;;;;;5047964;28;19913;-74
2022/12/22 17:12:28;;;;;;;;;;;10.70;18.80;;;;;;5039662;28;20310;-75
2022/12/22 17:14:58;;;;;;;;;;;10.80;17.20;;;;;;5060117;28;19908;-73
2022/12/22 17:17:23;;;;;;;;;;;10.80;15.30;;;;;;5050831;28;19917;-73
2022/12/22 17:19:49;;;;;;;;;;;10.80;16.80;;;;;;5048180;28;19960;-73
2022/12/22 17:22:26;;;;;;;;;;;10.80;17.00;;;;;;5053791;28;19978;-73
2022/12/22 17:24:53;;;;;;;;;;;10.80;15.50;;;;;;5053768;28;20364;-73
2022/12/22 17:27:23;;;;;;;;;;;10.80;15.20;;;;;;5054006;28;19944;-73
2022/12/22 17:29:49;;;;;;;;;;;10.80;15.60;;;;;;5054692;28;19959;-74
2022/12/22 17:32:15;;;;;;;;;;;10.70;13.90;;;;;;5054693;28;19995;-75
2022/12/22 17:34:41;;;;;;;;;;;10.70;15.60;;;;;;5070267;28;20280;-75
2022/12/22 17:37:17;;;;;;;;;;;10.60;16.30;;;;;;5063436;28;19919;-75
2022/12/22 17:39:44;;;;;;;;;;;10.60;16.60;;;;;;5053691;28;20379;-75
2022/12/22 17:42:22;;;;;;;;;;;10.60;17.00;;;;;;5063213;28;19909;-76
2022/12/22 17:44:49;;;;;;;;;;;10.50;20.10;;;;;;5060565;28;19919;-76
2022/12/22 17:47:19;;;;;;;;;;;10.60;20.80;;;;;;5058726;28;19948;-75
2022/12/22 17:49:45;;;;;;;;;;;10.60;20.00;;;;;;5042424;28;20288;-75
2022/12/22 17:52:21;;;;;;;;;;;10.60;20.80;;;;;;5064997;28;19909;-75
2022/12/22 17:54:57;;;;;;;;;;;10.60;21.50;;;;;;5049768;28;19909;-75
2022/12/22 17:57:29;;;;;;;;;;;10.60;21.30;;;;;;5067586;28;19916;-76
2022/12/22 17:59:55;;;;;;;;;;;10.60;21.10;;;;;;5065393;28;19916;-75
2022/12/22 18:02:22;;;;;;;;;;;10.70;20.60;;;;;;5065236;28;19909;-75
2022/12/22 18:04:51;;;;;;;;;;;10.60;20.50;;;;;;5061974;28;19916;-76
2022/12/22 18:07:22;;;;;;;;;;;10.60;21.50;;;;;;5063529;28;20351;-75
2022/12/22 18:09:49;;;;;;;;;;;10.70;22.40;;;;;;5051738;28;19919;-75
2022/12/22 18:12:16;;;;;;;;;;;10.60;23.70;;;;;;5054611;28;19916;-74
2022/12/22 18:14:45;;;;;;;;;;;10.60;23.50;;;;;;5056094;28;19909;-75
2022/12/22 18:17:21;;;;;;;;;;;10.60;23.90;;;;;;5052550;28;19920;-75
2022/12/22 18:19:46;;;;;;;;;;;10.60;26.20;;;;;;5052719;28;19921;-75
2022/12/22 18:22:25;;;;;;;;;;;10.60;27.80;;;;;;5053726;28;19920;-76
2022/12/22 18:24:57;;;;;;;;;;;10.60;28.20;;;;;;5048903;28;19920;-77
2022/12/22 18:27:38;;;;;;;;;;;10.60;34.00;;;;;;5038028;28;20350;-76
2022/12/22 18:30:22;;;;;;;;;;;10.60;36.20;;;;;;5054988;28;19913;-77
2022/12/22 18:33:14;;;;;;;;;;;10.70;36.10;;;;;;5061566;28;20008;-89
2022/12/22 18:39:14;;;;;;;;;;;10.50;42.30;;;;;;5057362;28;19917;-84
2022/12/22 18:45:14;;;;;;;;;;;10.60;42.40;;;;;;5069211;28;19939;-85
2022/12/22 18:50:43;;;;;;;;;;;10.70;42.50;;;;;;5043758;28;20392;-79
2022/12/22 18:53:28;;;;;;;;;;;10.60;42.30;;;;;;5075827;28;19909;-78
2022/12/22 18:55:54;;;;;;;;;;;10.60;42.40;;;;;;5063720;28;19915;-78
2022/12/22 18:58:38;;;;;;;;;;;10.60;42.40;;;;;;5070545;28;19950;-79
2022/12/22 19:01:37;;;;;;;;;;;10.60;42.40;;;;;;5072163;28;19909;-86
2022/12/22 19:07:20;;;;;;;;;;;10.60;42.40;;;;;;5036177;28;19999;-82
2022/12/22 19:16:15;;;;;;;;;;;10.60;42.30;;;;;;5048136;28;19916;-82
2022/12/22 19:18:45;;;;;;;;;;;10.70;45.20;;;;;;5043726;28;20373;-78
2022/12/22 19:21:15;;;;;;;;;;;10.80;42.60;;;;;;5038353;28;19951;-77
2022/12/22 19:23:45;;;;;;;;;;;10.80;42.60;;;;;;5048929;28;19914;-77
2022/12/22 19:26:21;;;;;;;;;;;10.90;42.70;;;;;;5047267;28;19913;-79
2022/12/22 19:28:59;;;;;;;;;;;10.80;42.60;;;;;;5036957;28;20404;-79
2022/12/22 19:31:36;;;;;;;;;;;10.90;42.70;;;;;;5034242;28;19913;-80
2022/12/22 19:34:04;;;;;;;;;;;10.90;42.90;;;;;;5026616;28;20348;-80
2022/12/22 19:36:44;;;;;;;;;;;10.90;42.60;;;;;;5038948;28;19913;-80
2022/12/22 19:39:15;;;;;;;;;;;10.90;42.60;;;;;;5022162;28;19952;-80
2022/12/22 19:41:46;;;;;;;;;;;11.00;42.70;;;;;;5055522;28;19912;-80
2022/12/22 19:44:44;;;;;;;;;;;10.80;42.60;;;;;;5061589;28;20357;-77
2022/12/22 19:47:17;;;;;;;;;;;10.90;42.70;;;;;;5058616;28;19917;-77
2022/12/22 19:49:43;;;;;;;;;;;10.90;42.70;;;;;;5050965;28;19917;-77
2022/12/22 19:52:09;;;;;;;;;;;10.80;42.60;;;;;;5049133;28;20035;-76
2022/12/22 19:54:56;;;;;;;;;;;10.70;42.50;;;;;;5063734;28;20253;-77
2022/12/22 19:57:22;;;;;;;;;;;10.70;49.10;;;;;;5065799;28;19947;-77
2022/12/22 19:59:51;;;;;;;;;;;10.80;46.50;;;;;;5059997;28;19908;-77
2022/12/22 20:02:19;;;;;;;;;;;10.80;47.90;;;;;;5066296;28;19916;-84
2022/12/22 20:04:51;;;;;;;;;;;10.80;52.40;;;;;;5064952;28;19917;-85
2022/12/22 20:07:28;;;;;;;;;;;10.70;56.20;;;;;;5044327;28;19913;-86
2022/12/22 20:10:09;;;;;;;;;;;10.60;66.40;;;;;;5055710;28;19936;-82
2022/12/22 20:16:14;;;;;;;;;;;10.60;73.90;;;;;;5047098;28;20008;-82
2022/12/22 20:18:41;;;;;;;;;;;10.70;73.20;;;;;;5046865;28;20373;-77
2022/12/22 20:21:09;;;;;;;;;;;10.70;66.80;;;;;;5059901;28;20003;-77
2022/12/22 20:24:08;;;;;;;;;;;10.80;65.50;;;;;;5063189;28;20339;-77
2022/12/22 20:26:34;;;;;;;;;;;10.80;66.30;;;;;;5045932;28;19932;-77
2022/12/22 20:29:32;;;;;;;;;;;10.70;68.30;;;;;;5053831;28;19917;-77
2022/12/22 20:31:58;;;;;;;;;;;10.80;68.00;;;;;;5052728;28;20003;-81
2022/12/22 20:38:02;;;;;;;;;;;10.90;60.90;;;;;;5073112;28;19966;-83
2022/12/22 20:40:46;;;;;;;;;;;10.80;59.70;;;;;;5061760;28;20075;-83
2022/12/22 20:43:18;;;;;;;;;;;10.80;67.10;;;;;;5065168;28;20006;-83
2022/12/22 20:45:46;;;;;;;;;;;10.80;70.90;;;;;;5049842;28;19913;-82
2022/12/22 20:51:17;;;;;;;;;;;10.80;71.70;;;;;;5044331;28;20292;-82
2022/12/22 20:54:14;;;;;;;;;;;10.80;68.70;;;;;;5060686;28;19915;-83
2022/12/22 20:56:44;;;;;;;;;;;10.90;67.90;;;;;;5048493;28;19913;-82
2022/12/22 20:59:16;;;;;;;;;;;10.90;63.30;;;;;;5054934;28;19962;-83
2022/12/22 21:01:45;;;;;;;;;;;10.60;68.30;;;;;;5040619;28;19913;-82